createdAt,value
2018-06-20T00:01:09.352Z,14.40
2018-06-20T00:03:37.017Z,14.40
2018-06-20T00:06:04.646Z,14.30
2018-06-20T00:11:03.973Z,14.30
2018-06-20T00:15:59.089Z,14.20
2018-06-20T00:20:54.204Z,14.20
2018-06-20T00:23:21.821Z,14.10
2018-06-20T00:25:49.447Z,14.00
2018-06-20T00:28:17.076Z,14.10
2018-06-20T00:30:44.683Z,14.00
2018-06-20T00:33:12.297Z,14.00
2018-06-20T00:35:39.907Z,14.00
2018-06-20T00:38:07.542Z,14.10
2018-06-20T00:40:35.192Z,14.10
2018-06-20T00:43:02.822Z,14.00
2018-06-20T00:47:57.993Z,14.00
2018-06-20T00:52:53.094Z,14.00
2018-06-20T00:57:53.680Z,13.90
2018-06-20T01:00:21.362Z,13.90
2018-06-20T01:05:16.622Z,13.90
2018-06-20T01:07:44.267Z,13.90
2018-06-20T01:10:11.889Z,13.80
2018-06-20T01:15:07.144Z,13.80
2018-06-20T01:20:02.458Z,13.70
2018-06-20T01:22:30.218Z,13.70
2018-06-20T01:29:52.993Z,13.70
2018-06-20T01:32:20.648Z,13.70
2018-06-20T01:37:15.914Z,13.60
2018-06-20T01:39:43.606Z,13.60
2018-06-20T01:44:38.775Z,13.50
2018-06-20T01:47:06.440Z,13.50
2018-06-20T01:49:34.125Z,13.50
2018-06-20T01:52:01.792Z,13.40
2018-06-20T01:54:29.458Z,13.50
2018-06-20T01:56:57.117Z,13.40
2018-06-20T01:59:24.765Z,13.30
2018-06-20T02:01:52.523Z,13.30
2018-06-20T02:04:20.148Z,13.40
2018-06-20T02:06:47.855Z,13.30
2018-06-20T02:09:15.493Z,13.20
2018-06-20T02:11:43.165Z,13.20
2018-06-20T02:14:11.761Z,13.20
2018-06-20T02:21:34.493Z,13.10
2018-06-20T02:24:02.129Z,13.10
2018-06-20T02:26:29.825Z,13.10
2018-06-20T02:31:25.045Z,13.00
2018-06-20T02:33:52.689Z,13.00
2018-06-20T02:38:53.366Z,13.00
2018-06-20T02:41:20.991Z,12.90
2018-06-20T02:43:48.610Z,13.00
2018-06-20T02:46:16.262Z,13.00
2018-06-20T02:48:43.944Z,12.90
2018-06-20T02:51:11.550Z,12.90
2018-06-20T02:53:39.209Z,12.90
2018-06-20T02:56:06.849Z,12.90
2018-06-20T02:58:34.498Z,13.00
2018-06-20T03:01:02.265Z,13.00
2018-06-20T03:05:57.369Z,13.00
2018-06-20T03:08:25.045Z,13.00
2018-06-20T03:10:52.652Z,13.00
2018-06-20T03:13:20.265Z,12.90
2018-06-20T03:18:15.343Z,12.90
2018-06-20T03:23:10.450Z,12.90
2018-06-20T03:25:38.085Z,12.90
2018-06-20T03:33:00.726Z,12.90
2018-06-20T03:35:28.350Z,12.80
2018-06-20T03:37:55.988Z,12.80
2018-06-20T03:40:23.625Z,12.80
2018-06-20T03:42:51.230Z,12.70
2018-06-20T03:45:18.856Z,12.80
2018-06-20T03:57:36.516Z,12.80
2018-06-20T04:00:04.275Z,12.90
2018-06-20T04:07:26.935Z,12.90
2018-06-20T04:09:54.595Z,12.90
2018-06-20T04:14:49.751Z,13.00
2018-06-20T04:19:44.953Z,13.10
2018-06-20T04:22:12.596Z,13.10
2018-06-20T04:24:40.232Z,13.10
2018-06-20T04:27:07.892Z,13.10
2018-06-20T04:32:03.046Z,13.20
2018-06-20T04:34:30.720Z,13.30
2018-06-20T04:39:26.003Z,13.30
2018-06-20T04:41:53.674Z,13.40
2018-06-20T04:44:21.259Z,13.40
2018-06-20T04:49:16.385Z,13.50
2018-06-20T04:51:44.030Z,13.50
2018-06-20T04:56:39.245Z,13.60
2018-06-20T05:01:34.479Z,13.70
2018-06-20T05:04:02.099Z,13.80
2018-06-20T05:06:29.731Z,13.80
2018-06-20T05:08:57.380Z,13.90
2018-06-20T05:13:52.524Z,14.00
2018-06-20T05:16:20.116Z,14.20
2018-06-20T05:21:15.256Z,14.40
2018-06-20T05:26:10.376Z,14.60
2018-06-20T05:28:38.052Z,14.70
2018-06-20T05:31:05.679Z,14.80
2018-06-20T05:33:33.314Z,14.90
2018-06-20T05:40:56.055Z,15.30
2018-06-20T05:43:23.750Z,15.30
2018-06-20T05:48:19.281Z,15.60
2018-06-20T05:50:47.271Z,15.80
2018-06-20T05:53:14.886Z,15.90
2018-06-20T05:55:42.540Z,16.10
2018-06-20T05:58:10.151Z,16.20
2018-06-20T06:00:37.875Z,16.30
2018-06-20T06:03:05.490Z,16.50
2018-06-20T06:08:05.856Z,16.90
2018-06-20T06:10:33.456Z,17.10
2018-06-20T06:13:01.081Z,17.30
2018-06-20T06:17:56.288Z,17.70
2018-06-20T06:20:23.945Z,17.90
2018-06-20T06:22:51.617Z,18.10
2018-06-20T06:25:19.249Z,18.30
2018-06-20T06:27:46.905Z,18.40
2018-06-20T06:30:14.595Z,18.60
2018-06-20T06:32:42.263Z,18.80
2018-06-20T06:35:09.926Z,18.90
2018-06-20T06:37:37.561Z,19.10
2018-06-20T06:42:32.795Z,19.30
2018-06-20T06:45:00.518Z,19.40
2018-06-20T06:47:28.756Z,19.70
2018-06-20T06:49:56.432Z,19.80
2018-06-20T06:52:24.032Z,20.00
2018-06-20T06:54:51.716Z,20.10
2018-06-20T06:57:19.417Z,20.20
2018-06-20T06:59:47.092Z,20.30
2018-06-20T07:07:10.003Z,20.60
2018-06-20T07:09:37.652Z,20.70
2018-06-20T07:12:05.371Z,20.80
2018-06-20T07:14:32.977Z,20.80
2018-06-20T07:17:00.596Z,20.90
2018-06-20T07:19:28.255Z,21.00
2018-06-20T07:24:23.660Z,21.10
2018-06-20T07:26:51.246Z,21.20
2018-06-20T07:29:18.956Z,21.30
2018-06-20T07:31:46.507Z,21.40
2018-06-20T07:34:14.295Z,21.40
2018-06-20T07:36:41.830Z,21.60
2018-06-20T07:39:09.446Z,21.60
2018-06-20T07:41:37.190Z,21.60
2018-06-20T07:44:04.896Z,21.70
2018-06-20T07:49:00.103Z,21.80
2018-06-20T07:51:27.742Z,21.80
2018-06-20T07:53:55.368Z,22.00
2018-06-20T07:58:57.376Z,22.00
2018-06-20T08:03:41.832Z,22.00
2018-06-20T08:06:15.073Z,22.10
2018-06-20T08:08:48.303Z,22.10
2018-06-20T08:11:21.537Z,22.30
2018-06-20T08:19:01.061Z,22.60
2018-06-20T08:21:28.802Z,22.50
2018-06-20T08:23:56.422Z,22.60
2018-06-20T08:26:24.048Z,22.70
2018-06-20T08:28:51.678Z,22.70
2018-06-20T08:36:14.361Z,22.60
2018-06-20T08:43:37.086Z,23.00
2018-06-20T08:48:32.233Z,23.30
2018-06-20T08:50:59.882Z,23.20
2018-06-20T08:55:55.057Z,23.20
2018-06-20T08:58:22.664Z,23.10
2018-06-20T09:00:56.059Z,23.20
2018-06-20T09:03:23.710Z,23.20
2018-06-20T09:05:56.888Z,23.20
2018-06-20T09:08:30.082Z,23.20
2018-06-20T09:11:03.414Z,23.20
2018-06-20T09:18:13.453Z,23.50
2018-06-20T09:20:41.068Z,23.70
2018-06-20T09:23:08.667Z,23.90
2018-06-20T09:28:03.842Z,24.20
2018-06-20T09:30:31.491Z,24.20
2018-06-20T09:32:59.187Z,24.20
2018-06-20T09:35:26.802Z,24.40
2018-06-20T09:37:54.461Z,24.40
2018-06-20T09:40:22.086Z,24.50
2018-06-20T09:47:44.887Z,24.60
2018-06-20T09:50:18.145Z,24.70
2018-06-20T09:52:45.752Z,24.70
2018-06-20T09:55:13.418Z,24.70
2018-06-20T09:57:41.138Z,24.70
2018-06-20T10:00:14.271Z,24.70
2018-06-20T10:02:47.517Z,24.70
2018-06-20T10:10:57.640Z,25.60
2018-06-20T10:13:26.065Z,25.50
2018-06-20T10:20:49.171Z,25.20
2018-06-20T10:23:16.807Z,25.30
2018-06-20T10:28:11.949Z,25.50
2018-06-20T10:30:39.561Z,25.60
2018-06-20T10:33:07.177Z,25.80
2018-06-20T10:35:34.803Z,25.90
2018-06-20T10:40:29.906Z,26.00
2018-06-20T10:42:57.752Z,26.10
2018-06-20T10:45:30.945Z,26.30
2018-06-20T10:50:26.161Z,26.50
2018-06-20T10:52:53.821Z,26.90
2018-06-20T10:55:21.411Z,27.50
2018-06-20T10:57:54.633Z,27.80
2018-06-20T11:00:27.938Z,28.10
2018-06-20T11:03:01.137Z,28.00
2018-06-20T11:08:07.553Z,27.60
2018-06-20T11:13:11.422Z,27.00
2018-06-20T11:15:39.103Z,26.70
2018-06-20T11:18:06.798Z,26.50
2018-06-20T11:28:07.018Z,26.30
2018-06-20T11:30:34.646Z,26.50
2018-06-20T11:37:57.462Z,26.40
2018-06-20T11:40:25.154Z,26.50
2018-06-20T11:45:20.296Z,26.40
2018-06-20T11:47:47.972Z,26.40
2018-06-20T11:50:15.693Z,26.50
2018-06-20T11:52:49.527Z,26.50
2018-06-20T11:55:23.197Z,26.70
2018-06-20T11:57:51.383Z,26.90
2018-06-20T12:00:25.082Z,26.90
2018-06-20T12:02:58.662Z,27.00
2018-06-20T12:14:18.754Z,27.90
2018-06-20T12:16:48.308Z,27.70
2018-06-20T12:19:22.749Z,27.80
2018-06-20T12:21:56.373Z,27.90
2018-06-20T12:27:03.563Z,27.80
2018-06-20T12:29:37.349Z,27.80
2018-06-20T12:37:24.197Z,28.20
2018-06-20T12:39:57.902Z,28.20
2018-06-20T12:42:31.807Z,28.20
2018-06-20T12:47:39.383Z,28.40
2018-06-20T12:50:10.718Z,28.50
2018-06-20T12:52:38.445Z,28.80
2018-06-20T12:55:06.090Z,28.80
2018-06-20T12:57:33.778Z,28.90
2018-06-20T13:02:28.972Z,29.00
2018-06-20T13:04:56.597Z,29.40
2018-06-20T13:07:24.242Z,29.80
2018-06-20T13:09:51.903Z,30.50
2018-06-20T13:14:47.079Z,31.30
2018-06-20T13:17:15.064Z,31.50
2018-06-20T13:19:42.740Z,31.30
2018-06-20T13:27:05.404Z,30.50
2018-06-20T13:32:06.214Z,31.70
2018-06-20T13:34:39.495Z,31.40
2018-06-20T13:37:12.694Z,31.30
2018-06-20T13:39:45.967Z,31.20
2018-06-20T13:42:18.939Z,31.60
2018-06-20T13:44:46.691Z,32.30
2018-06-20T13:47:19.854Z,32.70
2018-06-20T13:49:47.566Z,33.20
2018-06-20T13:52:15.309Z,34.30
2018-06-20T13:54:42.953Z,34.80
2018-06-20T13:57:10.596Z,34.70
2018-06-20T13:59:38.260Z,34.90
2018-06-20T14:07:01.112Z,35.90
2018-06-20T14:09:28.760Z,35.50
2018-06-20T14:11:56.388Z,35.30
2018-06-20T14:14:23.996Z,36.00
2018-06-20T14:19:23.683Z,36.10
2018-06-20T14:24:18.811Z,36.40
2018-06-20T14:29:14.008Z,36.40
2018-06-20T14:31:47.270Z,36.50
2018-06-20T14:34:20.419Z,36.60
2018-06-20T14:36:53.681Z,36.90
2018-06-20T14:39:26.815Z,37.00
2018-06-20T14:42:00.077Z,36.90
2018-06-20T14:51:50.314Z,36.50
2018-06-20T14:54:17.941Z,37.10
2018-06-20T14:56:45.690Z,37.00
2018-06-20T14:59:13.364Z,35.90
2018-06-20T15:01:41.134Z,35.50
2018-06-20T15:04:08.809Z,35.00
2018-06-20T15:06:36.498Z,34.20
2018-06-20T15:09:06.505Z,33.80
2018-06-20T15:14:01.713Z,33.50
2018-06-20T15:16:34.830Z,33.50
2018-06-20T15:21:30.001Z,34.20
2018-06-20T15:23:57.630Z,34.60
2018-06-20T15:31:09.713Z,33.90
2018-06-20T15:33:42.835Z,33.50
2018-06-20T15:36:15.938Z,33.40
2018-06-20T15:38:43.658Z,33.00
2018-06-20T15:41:11.294Z,32.10
2018-06-20T15:43:38.909Z,31.80
2018-06-20T15:46:06.530Z,31.50
2018-06-20T15:48:34.639Z,31.40
2018-06-20T15:51:02.335Z,31.00
2018-06-20T15:55:57.560Z,30.50
2018-06-20T15:58:25.193Z,30.50
2018-06-20T16:00:52.870Z,30.30
2018-06-20T16:03:21.178Z,30.00
2018-06-20T16:05:48.775Z,29.80
2018-06-20T16:08:16.404Z,29.80
2018-06-20T16:13:11.619Z,29.90
2018-06-20T16:15:39.305Z,29.70
2018-06-20T16:20:40.130Z,29.40
2018-06-20T16:23:13.508Z,29.30
2018-06-20T16:25:46.685Z,29.10
2018-06-20T16:28:19.991Z,28.90
2018-06-20T16:30:47.624Z,28.40
2018-06-20T16:33:15.331Z,28.20
2018-06-20T16:35:43.062Z,28.20
2018-06-20T16:40:38.282Z,28.00
2018-06-20T16:45:33.461Z,27.80
2018-06-20T16:48:01.034Z,27.70
2018-06-20T16:50:28.665Z,27.70
2018-06-20T16:52:56.290Z,27.70
2018-06-20T16:55:23.959Z,27.70
2018-06-20T17:00:19.171Z,27.70
2018-06-20T17:05:14.410Z,27.70
2018-06-20T17:10:09.735Z,27.80
2018-06-20T17:12:43.110Z,27.70
2018-06-20T17:27:55.475Z,27.20
2018-06-20T17:32:50.791Z,27.20
2018-06-20T17:37:46.038Z,27.10
2018-06-20T17:40:13.790Z,27.10
2018-06-20T17:42:41.510Z,26.90
2018-06-20T17:45:09.226Z,26.60
2018-06-20T17:47:36.920Z,26.40
2018-06-20T17:57:27.274Z,25.60
2018-06-20T18:02:22.649Z,25.20
2018-06-20T18:04:55.950Z,25.00
2018-06-20T18:07:29.171Z,24.80
2018-06-20T18:10:02.454Z,24.60
2018-06-20T18:12:35.682Z,24.40
2018-06-20T18:15:09.091Z,24.30
2018-06-20T18:17:36.735Z,24.20
2018-06-20T18:20:04.377Z,24.10
2018-06-20T18:22:32.131Z,24.00
2018-06-20T18:24:59.794Z,23.80
2018-06-20T18:27:27.455Z,23.70
2018-06-20T18:29:55.136Z,23.60
2018-06-20T18:32:22.819Z,23.60
2018-06-20T18:34:50.545Z,23.40
2018-06-20T18:37:18.244Z,23.30
2018-06-20T18:39:51.684Z,23.20
2018-06-20T18:42:19.316Z,23.10
2018-06-20T18:44:47.120Z,23.10
2018-06-20T18:47:20.365Z,23.00
2018-06-20T18:49:48.116Z,22.90
2018-06-20T18:57:16.385Z,22.60
2018-06-20T18:59:49.589Z,22.50
2018-06-20T19:02:22.781Z,22.30
2018-06-20T19:05:55.405Z,22.10
2018-06-20T19:08:28.751Z,22.00
2018-06-20T19:10:56.460Z,21.80
2018-06-20T19:13:24.405Z,21.80
2018-06-20T19:15:51.980Z,21.70
2018-06-20T19:18:19.662Z,21.50
2018-06-20T19:20:47.567Z,21.40
2018-06-20T19:23:15.254Z,21.30
2018-06-20T19:25:42.891Z,21.20
2018-06-20T19:28:10.577Z,21.00
2018-06-20T19:30:38.222Z,21.00
2018-06-20T19:40:28.505Z,20.70
2018-06-20T19:45:23.706Z,20.50
2018-06-20T19:50:18.907Z,20.30
2018-06-20T19:55:14.172Z,20.20
2018-06-20T19:57:41.835Z,20.00
2018-06-20T20:02:37.182Z,19.80
2018-06-20T20:05:05.061Z,19.80
2018-06-20T20:07:32.726Z,19.70
2018-06-20T20:12:27.946Z,19.60
2018-06-20T20:17:23.212Z,19.50
2018-06-20T20:19:50.907Z,19.50
2018-06-20T20:29:41.306Z,19.50
2018-06-20T20:34:50.671Z,19.40
2018-06-20T20:42:15.231Z,19.30
2018-06-20T20:44:43.780Z,19.30
2018-06-20T20:47:11.922Z,19.20
2018-06-20T20:52:08.327Z,19.20
2018-06-20T20:57:04.732Z,19.20
2018-06-20T20:59:33.305Z,19.20
2018-06-20T21:02:03.351Z,19.00
2018-06-20T21:04:31.010Z,19.00
2018-06-20T21:06:59.381Z,19.00
2018-06-20T21:09:27.543Z,19.00
2018-06-20T21:11:55.725Z,19.00
2018-06-20T21:14:24.702Z,19.00
2018-06-20T21:16:53.475Z,19.00
2018-06-20T21:19:22.656Z,18.90
2018-06-20T21:21:51.097Z,19.00
2018-06-20T21:26:46.333Z,18.90
2018-06-20T21:31:43.600Z,18.90
2018-06-20T21:34:12.286Z,18.80
2018-06-20T21:36:40.171Z,18.80
2018-06-20T21:41:37.502Z,18.50
2018-06-20T21:44:06.838Z,18.50
2018-06-20T21:51:32.627Z,18.50
2018-06-20T21:54:01.869Z,18.30
2018-06-20T21:56:30.674Z,18.30
2018-06-20T22:03:58.654Z,18.30
2018-06-20T22:13:51.916Z,18.30
2018-06-20T22:21:14.636Z,18.20
2018-06-20T22:28:37.423Z,17.90
2018-06-20T22:31:05.092Z,17.90
2018-06-20T22:36:00.307Z,17.90
2018-06-20T22:38:27.945Z,17.80
2018-06-20T22:48:18.156Z,17.40
2018-06-20T22:53:13.328Z,17.30
2018-06-20T22:55:40.985Z,17.20
2018-06-20T22:58:10.190Z,17.30
2018-06-20T23:00:37.865Z,17.20
2018-06-20T23:05:33.017Z,17.20
2018-06-20T23:08:00.693Z,17.20
2018-06-20T23:10:28.322Z,17.10
2018-06-20T23:12:55.962Z,17.10
2018-06-20T23:15:23.590Z,17.20
2018-06-20T23:17:51.256Z,17.30
2018-06-20T23:27:41.470Z,17.20
2018-06-20T23:30:09.163Z,17.20
2018-06-20T23:32:36.796Z,17.10
2018-06-20T23:35:04.551Z,17.10
2018-06-20T23:37:32.188Z,17.10
2018-06-20T23:39:59.890Z,17.10
2018-06-20T23:42:27.539Z,17.20
2018-06-20T23:44:55.182Z,17.20
2018-06-20T23:49:50.333Z,17.10
2018-06-20T23:52:17.985Z,17.00
2018-06-20T23:57:13.100Z,16.90
2018-06-20T23:59:40.715Z,16.80
